Time,TemperatureF,DewpointF,PressureIn,WindDirection,WindDirectionDegrees,WindSpeedMPH,WindSpeedGustMPH,Humidity,HourlyPrecipIn,Conditions,Clouds,dailyrainin,SoftwareType,DateUTC
2013-04-26 00:03:00,49.0,30.0,30.27,SE,141,0.0,2.0,48,0.00,,,0.02,,2013-04-26 04:03:00,
2013-04-26 00:12:00,49.0,30.0,30.27,SE,141,0.0,2.0,48,0.00,,,0.02,,2013-04-26 04:12:00,
2013-04-26 00:23:00,49.0,30.0,30.27,SE,141,0.0,2.0,48,0.00,,,0.02,,2013-04-26 04:23:00,
2013-04-26 00:32:00,48.0,30.0,30.26,ESE,121,0.0,1.0,49,0.00,,,0.02,,2013-04-26 04:32:00,
2013-04-26 00:43:00,48.0,30.0,30.26,ESE,121,0.0,1.0,49,0.00,,,0.02,,2013-04-26 04:43:00,
2013-04-26 00:53:00,48.0,30.0,30.26,ESE,121,0.0,1.0,49,0.00,,,0.02,,2013-04-26 04:53:00,
2013-04-26 01:02:00,48.0,32.0,30.26,ESE,121,0.0,0.0,53,0.00,,,0.02,,2013-04-26 05:02:00,
2013-04-26 01:12:00,48.0,32.0,30.26,ESE,121,0.0,0.0,53,0.00,,,0.02,,2013-04-26 05:12:00,
2013-04-26 01:22:00,48.0,32.0,30.26,ESE,121,0.0,0.0,53,0.00,,,0.02,,2013-04-26 05:22:00,
2013-04-26 01:32:00,47.0,29.0,30.27,ESE,121,0.0,0.0,49,0.00,,,0.02,,2013-04-26 05:32:00,
2013-04-26 01:42:00,47.0,29.0,30.27,ESE,121,0.0,0.0,49,0.00,,,0.02,,2013-04-26 05:42:00,
2013-04-26 01:52:00,47.0,29.0,30.27,ESE,121,0.0,0.0,49,0.00,,,0.02,,2013-04-26 05:52:00,
2013-04-26 02:02:00,47.0,30.0,30.27,ESE,121,0.0,0.0,52,0.00,,,0.02,,2013-04-26 06:02:00,
2013-04-26 02:11:00,47.0,30.0,30.27,ESE,121,0.0,0.0,52,0.00,,,0.02,,2013-04-26 06:11:00,
2013-04-26 02:22:00,47.0,30.0,30.27,ESE,121,0.0,0.0,52,0.00,,,0.02,,2013-04-26 06:22:00,
2013-04-26 02:32:00,46.0,29.0,30.26,ESE,121,0.0,0.0,51,0.00,,,0.02,,2013-04-26 06:32:00,
2013-04-26 02:42:00,46.0,29.0,30.26,ESE,121,0.0,0.0,51,0.00,,,0.02,,2013-04-26 06:42:00,
2013-04-26 02:52:00,46.0,29.0,30.26,ESE,121,0.0,0.0,51,0.00,,,0.02,,2013-04-26 06:52:00,
2013-04-26 03:01:00,45.0,31.0,30.25,ESE,121,0.0,0.0,57,0.00,,,0.02,,2013-04-26 07:01:00,
2013-04-26 03:11:00,45.0,31.0,30.25,ESE,121,0.0,0.0,57,0.00,,,0.02,,2013-04-26 07:11:00,
2013-04-26 03:22:00,45.0,31.0,30.25,ESE,121,0.0,0.0,57,0.00,,,0.02,,2013-04-26 07:22:00,
2013-04-26 03:32:00,44.0,31.0,30.26,East,89,0.0,0.0,59,0.00,,,0.02,,2013-04-26 07:32:00,
2013-04-26 03:42:00,44.0,31.0,30.26,East,89,0.0,0.0,59,0.00,,,0.02,,2013-04-26 07:42:00,
2013-04-26 03:52:00,44.0,31.0,30.26,East,89,0.0,0.0,59,0.00,,,0.02,,2013-04-26 07:52:00,
2013-04-26 04:03:00,43.0,32.0,30.26,East,89,0.0,0.0,64,0.00,,,0.02,,2013-04-26 08:03:00,
2013-04-26 04:11:00,43.0,32.0,30.26,East,89,0.0,0.0,64,0.00,,,0.02,,2013-04-26 08:11:00,
2013-04-26 04:22:00,43.0,32.0,30.26,East,89,0.0,0.0,64,0.00,,,0.02,,2013-04-26 08:22:00,
2013-04-26 04:32:00,43.0,32.0,30.26,East,89,0.0,0.0,64,0.00,,,0.02,,2013-04-26 08:32:00,
2013-04-26 05:02:00,41.0,31.0,30.28,SSE,148,0.0,0.0,66,0.00,,,0.02,,2013-04-26 09:02:00,
2013-04-26 05:12:00,41.0,31.0,30.28,SSE,148,0.0,0.0,66,0.00,,,0.02,,2013-04-26 09:12:00,
2013-04-26 05:22:00,41.0,31.0,30.28,SSE,148,0.0,0.0,66,0.00,,,0.02,,2013-04-26 09:22:00,
2013-04-26 05:33:00,40.0,31.0,30.26,SSE,148,0.0,1.0,71,0.00,,,0.02,,2013-04-26 09:33:00,
2013-04-26 05:43:00,40.0,31.0,30.26,SSE,148,0.0,1.0,71,0.00,,,0.02,,2013-04-26 09:43:00,
2013-04-26 05:53:00,40.0,31.0,30.26,SSE,148,0.0,1.0,71,0.00,,,0.02,,2013-04-26 09:53:00,
2013-04-26 06:03:00,39.0,31.0,30.27,SSE,148,0.0,0.0,74,0.00,,,0.02,,2013-04-26 10:03:00,
2013-04-26 06:12:00,39.0,31.0,30.27,SSE,148,0.0,0.0,74,0.00,,,0.02,,2013-04-26 10:12:00,
2013-04-26 06:23:00,39.0,31.0,30.27,SSE,148,0.0,0.0,74,0.00,,,0.02,,2013-04-26 10:23:00,
2013-04-26 06:33:00,39.0,32.0,30.29,SSE,148,0.0,0.0,75,0.00,,,0.02,,2013-04-26 10:33:00,
2013-04-26 06:42:00,39.0,32.0,30.29,SSE,148,0.0,0.0,75,0.00,,,0.02,,2013-04-26 10:42:00,
2013-04-26 06:52:00,39.0,32.0,30.29,SSE,148,0.0,0.0,75,0.00,,,0.02,,2013-04-26 10:52:00,
2013-04-26 07:02:00,38.0,31.0,30.31,SSE,148,0.0,0.0,75,0.00,,,0.02,,2013-04-26 11:02:00,
2013-04-26 07:11:00,38.0,31.0,30.31,SSE,148,0.0,0.0,75,0.00,,,0.02,,2013-04-26 11:11:00,
2013-04-26 07:22:00,38.0,31.0,30.31,SSE,148,0.0,0.0,75,0.00,,,0.02,,2013-04-26 11:22:00,
2013-04-26 07:32:00,38.0,31.0,30.31,SSE,148,0.0,0.0,76,0.00,,,0.02,,2013-04-26 11:32:00,
2013-04-26 07:42:00,38.0,31.0,30.31,SSE,148,0.0,0.0,76,0.00,,,0.02,,2013-04-26 11:42:00,
2013-04-26 07:52:00,38.0,31.0,30.31,SSE,148,0.0,0.0,76,0.00,,,0.02,,2013-04-26 11:52:00,
2013-04-26 08:02:00,38.0,31.0,30.31,SSE,148,0.0,0.0,76,0.00,,,0.02,,2013-04-26 12:02:00,
2013-04-26 08:11:00,38.0,31.0,30.31,SSE,148,0.0,0.0,76,0.00,,,0.02,,2013-04-26 12:11:00,
2013-04-26 08:32:00,39.0,32.0,30.33,SSE,148,0.0,0.0,77,0.00,,,0.02,,2013-04-26 12:32:00,
2013-04-26 08:42:00,39.0,32.0,30.33,SSE,148,0.0,0.0,77,0.00,,,0.02,,2013-04-26 12:42:00,
2013-04-26 08:52:00,39.0,32.0,30.33,SSE,148,0.0,0.0,77,0.00,,,0.02,,2013-04-26 12:52:00,
2013-04-26 09:01:00,42.0,34.0,30.34,SSE,148,0.0,0.0,74,0.00,,,0.02,,2013-04-26 13:01:00,
2013-04-26 09:11:00,42.0,34.0,30.34,SSE,148,0.0,0.0,74,0.00,,,0.02,,2013-04-26 13:11:00,
2013-04-26 09:22:00,42.0,34.0,30.34,SSE,148,0.0,0.0,74,0.00,,,0.02,,2013-04-26 13:22:00,
2013-04-26 09:32:00,44.0,34.0,30.34,SSE,148,0.0,1.0,69,0.00,,,0.01,,2013-04-26 13:32:00,
2013-04-26 09:42:00,44.0,34.0,30.34,SSE,148,0.0,1.0,69,0.00,,,0.01,,2013-04-26 13:42:00,
2013-04-26 09:52:00,44.0,34.0,30.34,SSE,148,0.0,1.0,69,0.00,,,0.01,,2013-04-26 13:52:00,
2013-04-26 10:01:00,48.0,36.0,30.36,ENE,62,0.0,2.0,64,0.00,,,0.01,,2013-04-26 14:01:00,
2013-04-26 10:11:00,48.0,36.0,30.36,ENE,62,0.0,2.0,64,0.00,,,0.01,,2013-04-26 14:11:00,
2013-04-26 10:21:00,48.0,36.0,30.36,ENE,62,0.0,2.0,64,0.00,,,0.01,,2013-04-26 14:21:00,
2013-04-26 10:32:00,56.0,37.0,30.35,ENE,65,1.0,3.0,49,0.00,,,0.01,,2013-04-26 14:32:00,
2013-04-26 10:42:00,56.0,37.0,30.35,ENE,65,1.0,3.0,49,0.00,,,0.01,,2013-04-26 14:42:00,
2013-04-26 10:52:00,56.0,37.0,30.35,ENE,65,1.0,3.0,49,0.00,,,0.01,,2013-04-26 14:52:00,
2013-04-26 11:01:00,61.0,34.0,30.36,NE,34,0.0,2.0,36,0.00,,,0.01,,2013-04-26 15:01:00,
2013-04-26 11:12:00,61.0,34.0,30.36,NE,34,0.0,2.0,36,0.00,,,0.01,,2013-04-26 15:12:00,
2013-04-26 11:22:00,61.0,34.0,30.36,NE,34,0.0,2.0,36,0.00,,,0.01,,2013-04-26 15:22:00,
2013-04-26 11:33:00,62.0,30.0,30.37,ENE,58,0.0,3.0,30,0.00,,,0.01,,2013-04-26 15:33:00,
2013-04-26 11:43:00,62.0,30.0,30.37,ENE,58,0.0,3.0,30,0.00,,,0.01,,2013-04-26 15:43:00,
2013-04-26 11:53:00,62.0,30.0,30.37,ENE,58,0.0,3.0,30,0.00,,,0.01,,2013-04-26 15:53:00,
2013-04-26 12:03:00,63.0,33.0,30.36,East,92,1.0,2.0,32,0.00,,,0.01,,2013-04-26 16:03:00,
2013-04-26 12:12:00,63.0,33.0,30.36,East,92,1.0,2.0,32,0.00,,,0.01,,2013-04-26 16:12:00,
2013-04-26 12:23:00,63.0,33.0,30.36,East,92,1.0,2.0,32,0.00,,,0.01,,2013-04-26 16:23:00,
2013-04-26 12:33:00,63.0,33.0,30.36,East,88,1.0,3.0,33,0.00,,,0.00,,2013-04-26 16:33:00,
2013-04-26 12:42:00,63.0,33.0,30.36,East,88,1.0,3.0,33,0.00,,,0.00,,2013-04-26 16:42:00,
2013-04-26 12:53:00,63.0,33.0,30.36,East,88,1.0,3.0,33,0.00,,,0.00,,2013-04-26 16:53:00,
2013-04-26 13:02:00,65.0,35.0,30.35,East,79,2.0,3.0,33,0.00,,,0.00,,2013-04-26 17:02:00,
2013-04-26 13:12:00,65.0,35.0,30.35,East,79,2.0,3.0,33,0.00,,,0.00,,2013-04-26 17:12:00,
2013-04-26 13:22:00,65.0,35.0,30.35,East,79,2.0,3.0,33,0.00,,,0.00,,2013-04-26 17:22:00,
2013-04-26 13:32:00,66.0,34.0,30.34,East,95,1.0,3.0,31,0.00,,,0.00,,2013-04-26 17:32:00,
2013-04-26 13:42:00,66.0,34.0,30.34,East,95,1.0,3.0,31,0.00,,,0.00,,2013-04-26 17:42:00,
2013-04-26 13:52:00,66.0,34.0,30.34,East,95,1.0,3.0,31,0.00,,,0.00,,2013-04-26 17:52:00,
2013-04-26 14:02:00,66.0,34.0,30.34,East,96,0.0,3.0,30,0.00,,,0.00,,2013-04-26 18:02:00,
2013-04-26 14:12:00,66.0,34.0,30.34,East,96,0.0,3.0,30,0.00,,,0.00,,2013-04-26 18:12:00,
2013-04-26 14:22:00,66.0,34.0,30.34,East,96,0.0,3.0,30,0.00,,,0.00,,2013-04-26 18:22:00,
2013-04-26 14:33:00,66.0,34.0,30.34,ENE,76,1.0,5.0,31,0.00,,,0.00,,2013-04-26 18:33:00,
2013-04-26 14:42:00,66.0,34.0,30.34,ENE,76,1.0,5.0,31,0.00,,,0.00,,2013-04-26 18:42:00,
2013-04-26 14:52:00,66.0,34.0,30.34,ENE,76,1.0,5.0,31,0.00,,,0.00,,2013-04-26 18:52:00,
2013-04-26 15:01:00,68.0,35.0,30.33,East,89,0.0,3.0,30,0.00,,,0.00,,2013-04-26 19:01:00,
2013-04-26 15:12:00,68.0,35.0,30.33,East,89,0.0,3.0,30,0.00,,,0.00,,2013-04-26 19:12:00,
2013-04-26 15:22:00,68.0,35.0,30.33,East,89,0.0,3.0,30,0.00,,,0.00,,2013-04-26 19:22:00,
2013-04-26 15:32:00,68.0,36.0,30.32,East,85,1.0,4.0,31,0.00,,,0.00,,2013-04-26 19:32:00,
2013-04-26 15:42:00,68.0,36.0,30.32,East,85,1.0,4.0,31,0.00,,,0.00,,2013-04-26 19:42:00,
2013-04-26 15:52:00,68.0,36.0,30.32,East,85,1.0,4.0,31,0.00,,,0.00,,2013-04-26 19:52:00,
2013-04-26 16:02:00,67.0,34.0,30.31,East,99,1.0,3.0,29,0.00,,,0.00,,2013-04-26 20:02:00,
2013-04-26 16:11:00,67.0,34.0,30.31,East,99,1.0,3.0,29,0.00,,,0.00,,2013-04-26 20:11:00,
2013-04-26 16:22:00,67.0,34.0,30.31,East,99,1.0,3.0,29,0.00,,,0.00,,2013-04-26 20:22:00,
2013-04-26 16:32:00,65.0,36.0,30.27,East,80,0.0,3.0,34,0.00,,,0.00,,2013-04-26 20:32:00,
2013-04-26 16:42:00,65.0,36.0,30.27,East,80,0.0,3.0,34,0.00,,,0.00,,2013-04-26 20:42:00,
2013-04-26 16:52:00,65.0,36.0,30.27,East,80,0.0,3.0,34,0.00,,,0.00,,2013-04-26 20:52:00,
2013-04-26 17:02:00,66.0,36.0,30.27,East,80,2.0,5.0,33,0.00,,,0.00,,2013-04-26 21:02:00,
2013-04-26 17:11:00,66.0,36.0,30.27,East,80,2.0,5.0,33,0.00,,,0.00,,2013-04-26 21:11:00,
2013-04-26 17:22:00,66.0,36.0,30.27,East,80,2.0,5.0,33,0.00,,,0.00,,2013-04-26 21:22:00,
2013-04-26 17:33:00,66.0,37.0,30.26,East,92,0.0,2.0,34,0.00,,,0.00,,2013-04-26 21:33:00,
2013-04-26 17:42:00,66.0,37.0,30.26,East,92,0.0,2.0,34,0.00,,,0.00,,2013-04-26 21:42:00,
2013-04-26 17:53:00,66.0,37.0,30.26,East,92,0.0,2.0,34,0.00,,,0.00,,2013-04-26 21:53:00,
2013-04-26 18:03:00,64.0,37.0,30.27,East,86,1.0,2.0,37,0.00,,,0.00,,2013-04-26 22:03:00,
2013-04-26 18:12:00,64.0,37.0,30.27,East,86,1.0,2.0,37,0.00,,,0.00,,2013-04-26 22:12:00,
2013-04-26 18:23:00,64.0,37.0,30.27,East,86,1.0,2.0,37,0.00,,,0.00,,2013-04-26 22:23:00,
2013-04-26 18:33:00,64.0,39.0,30.27,East,88,0.0,3.0,39,0.00,,,0.00,,2013-04-26 22:33:00,
2013-04-26 18:42:00,64.0,39.0,30.27,East,88,0.0,3.0,39,0.00,,,0.00,,2013-04-26 22:42:00,
2013-04-26 18:52:00,64.0,39.0,30.27,East,88,0.0,3.0,39,0.00,,,0.00,,2013-04-26 22:52:00,
2013-04-26 19:02:00,63.0,38.0,30.28,SSE,160,0.0,2.0,40,0.00,,,0.00,,2013-04-26 23:02:00,
2013-04-26 19:12:00,63.0,38.0,30.28,SSE,160,0.0,2.0,40,0.00,,,0.00,,2013-04-26 23:12:00,
2013-04-26 19:22:00,63.0,38.0,30.28,SSE,160,0.0,2.0,40,0.00,,,0.00,,2013-04-26 23:22:00,
2013-04-26 19:32:00,62.0,38.0,30.30,East,85,0.0,1.0,41,0.00,,,0.00,,2013-04-26 23:32:00,
2013-04-26 19:42:00,62.0,38.0,30.30,East,85,0.0,1.0,41,0.00,,,0.00,,2013-04-26 23:42:00,
2013-04-26 19:52:00,62.0,38.0,30.30,East,85,0.0,1.0,41,0.00,,,0.00,,2013-04-26 23:52:00,
2013-04-26 20:01:00,61.0,40.0,30.30,East,85,0.0,0.0,45,0.00,,,0.00,,2013-04-27 00:01:00,
2013-04-26 20:11:00,61.0,40.0,30.30,East,85,0.0,0.0,45,0.00,,,0.00,,2013-04-27 00:11:00,
2013-04-26 20:22:00,61.0,40.0,30.30,East,85,0.0,0.0,45,0.00,,,0.00,,2013-04-27 00:22:00,
2013-04-26 20:32:00,60.0,39.0,30.32,East,85,0.0,0.0,45,0.00,,,0.00,,2013-04-27 00:32:00,
2013-04-26 20:42:00,60.0,39.0,30.32,East,85,0.0,0.0,45,0.00,,,0.00,,2013-04-27 00:42:00,
2013-04-26 20:52:00,60.0,39.0,30.32,East,85,0.0,0.0,45,0.00,,,0.00,,2013-04-27 00:52:00,
2013-04-26 21:01:00,59.0,38.0,30.31,East,85,0.0,0.0,45,0.00,,,0.00,,2013-04-27 01:01:00,
2013-04-26 21:12:00,59.0,38.0,30.31,East,85,0.0,0.0,45,0.00,,,0.00,,2013-04-27 01:12:00,
2013-04-26 21:21:00,59.0,38.0,30.31,East,85,0.0,0.0,45,0.00,,,0.00,,2013-04-27 01:21:00,
2013-04-26 21:32:00,58.0,38.0,30.30,East,85,0.0,0.0,47,0.00,,,0.00,,2013-04-27 01:32:00,
2013-04-26 21:42:00,58.0,38.0,30.30,East,85,0.0,0.0,47,0.00,,,0.00,,2013-04-27 01:42:00,
2013-04-26 21:52:00,58.0,38.0,30.30,East,85,0.0,0.0,47,0.00,,,0.00,,2013-04-27 01:52:00,
2013-04-26 22:02:00,58.0,38.0,30.29,East,85,0.0,0.0,48,0.00,,,0.00,,2013-04-27 02:02:00,
2013-04-26 22:11:00,58.0,38.0,30.29,East,85,0.0,0.0,48,0.00,,,0.00,,2013-04-27 02:11:00,
2013-04-26 22:22:00,58.0,38.0,30.29,East,85,0.0,0.0,48,0.00,,,0.00,,2013-04-27 02:22:00,
2013-04-26 22:32:00,57.0,40.0,30.27,East,85,0.0,0.0,53,0.00,,,0.00,,2013-04-27 02:32:00,
2013-04-26 22:42:00,57.0,40.0,30.27,East,85,0.0,0.0,53,0.00,,,0.00,,2013-04-27 02:42:00,
2013-04-26 22:52:00,57.0,40.0,30.27,East,85,0.0,0.0,53,0.00,,,0.00,,2013-04-27 02:52:00,
2013-04-26 23:02:00,56.0,41.0,30.29,East,85,0.0,0.0,57,0.00,,,0.00,,2013-04-27 03:02:00,
2013-04-26 23:11:00,56.0,41.0,30.29,East,85,0.0,0.0,57,0.00,,,0.00,,2013-04-27 03:11:00,
2013-04-26 23:22:00,56.0,41.0,30.29,East,85,0.0,0.0,57,0.00,,,0.00,,2013-04-27 03:22:00,
2013-04-26 23:33:00,56.0,42.0,30.27,East,85,0.0,0.0,59,0.00,,,0.00,,2013-04-27 03:33:00,
2013-04-26 23:43:00,56.0,42.0,30.27,East,85,0.0,0.0,59,0.00,,,0.00,,2013-04-27 03:43:00,
2013-04-26 23:53:00,56.0,42.0,30.27,East,85,0.0,0.0,59,0.00,,,0.00,,2013-04-27 03:53:00,